sensor_id;sensor_type;location;lat;lon;timestamp;P1;P2;P0
59179;PMS7003;44956;52.422;20.818;2024-02-15T00:00:21;32.00;27.67;16.33
59179;PMS7003;44956;52.422;20.818;2024-02-15T00:03:45;28.67;25.33;15.67
59179;PMS7003;44956;52.422;20.818;2024-02-15T00:06:47;24.00;23.67;14.00
59179;PMS7003;44956;52.422;20.818;2024-02-15T00:09:50;31.33;25.33;15.33
59179;PMS7003;44956;52.422;20.818;2024-02-15T00:12:54;30.67;28.00;19.00
59179;PMS7003;44956;52.422;20.818;2024-02-15T00:15:57;31.00;27.33;16.00
59179;PMS7003;44956;52.422;20.818;2024-02-15T00:19:00;23.67;23.00;13.67
59179;PMS7003;44956;52.422;20.818;2024-02-15T00:22:04;27.33;24.00;13.67
59179;PMS7003;44956;52.422;20.818;2024-02-15T00:25:07;28.33;27.00;16.00
59179;PMS7003;44956;52.422;20.818;2024-02-15T00:28:14;32.00;26.00;15.67
59179;PMS7003;44956;52.422;20.818;2024-02-15T00:31:19;22.00;22.00;13.67
59179;PMS7003;44956;52.422;20.818;2024-02-15T00:34:22;27.67;25.67;13.67
59179;PMS7003;44956;52.422;20.818;2024-02-15T00:37:25;30.33;24.67;16.00
59179;PMS7003;44956;52.422;20.818;2024-02-15T00:40:28;30.00;26.00;17.33
59179;PMS7003;44956;52.422;20.818;2024-02-15T00:43:30;30.00;26.33;13.00
59179;PMS7003;44956;52.422;20.818;2024-02-15T00:46:40;24.67;24.00;15.33
59179;PMS7003;44956;52.422;20.818;2024-02-15T00:49:43;26.67;23.00;13.00
59179;PMS7003;44956;52.422;20.818;2024-02-15T00:52:47;33.00;31.33;17.33
59179;PMS7003;44956;52.422;20.818;2024-02-15T00:55:49;29.67;26.00;16.00
59179;PMS7003;44956;52.422;20.818;2024-02-15T00:58:52;27.00;21.33;15.33
59179;PMS7003;44956;52.422;20.818;2024-02-15T01:01:56;27.33;24.00;15.00
59179;PMS7003;44956;52.422;20.818;2024-02-15T01:04:59;29.33;26.33;12.67
59179;PMS7003;44956;52.422;20.818;2024-02-15T01:08:02;31.00;25.00;15.33
59179;PMS7003;44956;52.422;20.818;2024-02-15T01:11:04;32.00;26.33;15.00
59179;PMS7003;44956;52.422;20.818;2024-02-15T01:14:08;29.33;27.33;16.67
59179;PMS7003;44956;52.422;20.818;2024-02-15T01:17:12;33.33;27.00;17.00
59179;PMS7003;44956;52.422;20.818;2024-02-15T01:20:14;27.67;23.00;15.33
59179;PMS7003;44956;52.422;20.818;2024-02-15T01:23:18;37.33;32.33;15.00
59179;PMS7003;44956;52.422;20.818;2024-02-15T01:26:21;25.33;22.33;15.00
59179;PMS7003;44956;52.422;20.818;2024-02-15T01:29:26;26.00;21.33;16.00
59179;PMS7003;44956;52.422;20.818;2024-02-15T01:32:30;27.33;23.00;14.33
59179;PMS7003;44956;52.422;20.818;2024-02-15T01:35:34;30.00;28.33;16.00
59179;PMS7003;44956;52.422;20.818;2024-02-15T01:38:37;35.67;29.00;17.00
59179;PMS7003;44956;52.422;20.818;2024-02-15T01:41:40;29.67;27.67;19.00
59179;PMS7003;44956;52.422;20.818;2024-02-15T01:44:42;33.00;26.00;17.33
59179;PMS7003;44956;52.422;20.818;2024-02-15T01:47:52;29.00;25.33;15.33
59179;PMS7003;44956;52.422;20.818;2024-02-15T01:50:56;28.33;27.00;15.33
59179;PMS7003;44956;52.422;20.818;2024-02-15T01:54:01;23.33;22.33;12.33
59179;PMS7003;44956;52.422;20.818;2024-02-15T01:57:04;33.00;24.33;15.00
59179;PMS7003;44956;52.422;20.818;2024-02-15T02:00:09;29.00;25.33;16.00
59179;PMS7003;44956;52.422;20.818;2024-02-15T02:03:12;24.33;23.00;16.00
59179;PMS7003;44956;52.422;20.818;2024-02-15T02:06:19;30.00;27.00;16.00
59179;PMS7003;44956;52.422;20.818;2024-02-15T02:09:21;23.00;21.33;15.00
59179;PMS7003;44956;52.422;20.818;2024-02-15T02:12:24;29.33;26.00;16.00
59179;PMS7003;44956;52.422;20.818;2024-02-15T02:15:31;29.33;24.33;10.00
59179;PMS7003;44956;52.422;20.818;2024-02-15T02:18:34;27.67;24.67;15.33
59179;PMS7003;44956;52.422;20.818;2024-02-15T02:21:37;25.33;23.67;13.00
59179;PMS7003;44956;52.422;20.818;2024-02-15T02:28:01;31.67;29.33;15.67
59179;PMS7003;44956;52.422;20.818;2024-02-15T02:31:04;31.67;23.00;15.00
59179;PMS7003;44956;52.422;20.818;2024-02-15T02:34:08;29.00;28.00;13.67
59179;PMS7003;44956;52.422;20.818;2024-02-15T02:37:13;27.00;24.00;15.33
59179;PMS7003;44956;52.422;20.818;2024-02-15T02:40:15;25.33;23.67;17.67
59179;PMS7003;44956;52.422;20.818;2024-02-15T02:43:18;31.00;27.00;15.67
59179;PMS7003;44956;52.422;20.818;2024-02-15T02:46:21;30.33;26.33;16.33
59179;PMS7003;44956;52.422;20.818;2024-02-15T02:49:24;34.67;31.33;16.67
59179;PMS7003;44956;52.422;20.818;2024-02-15T02:52:26;27.67;23.33;15.67
59179;PMS7003;44956;52.422;20.818;2024-02-15T02:55:29;39.00;29.67;16.67
59179;PMS7003;44956;52.422;20.818;2024-02-15T02:58:34;36.67;26.67;16.00
59179;PMS7003;44956;52.422;20.818;2024-02-15T03:01:37;29.67;29.00;17.67
59179;PMS7003;44956;52.422;20.818;2024-02-15T03:04:41;28.67;24.67;13.67
59179;PMS7003;44956;52.422;20.818;2024-02-15T03:07:44;30.00;23.67;15.00
59179;PMS7003;44956;52.422;20.818;2024-02-15T03:10:47;30.33;25.33;15.33
59179;PMS7003;44956;52.422;20.818;2024-02-15T03:13:50;35.67;25.67;15.67
59179;PMS7003;44956;52.422;20.818;2024-02-15T03:16:55;27.33;23.00;13.00
59179;PMS7003;44956;52.422;20.818;2024-02-15T03:19:58;31.33;27.00;16.33
59179;PMS7003;44956;52.422;20.818;2024-02-15T03:23:01;34.67;28.67;17.00
59179;PMS7003;44956;52.422;20.818;2024-02-15T03:26:07;29.67;23.67;14.00
59179;PMS7003;44956;52.422;20.818;2024-02-15T03:29:10;29.67;26.67;16.33
59179;PMS7003;44956;52.422;20.818;2024-02-15T03:32:13;34.67;30.00;17.00
59179;PMS7003;44956;52.422;20.818;2024-02-15T03:35:20;20.67;20.67;13.00
59179;PMS7003;44956;52.422;20.818;2024-02-15T03:38:25;30.33;29.67;19.00
59179;PMS7003;44956;52.422;20.818;2024-02-15T03:41:29;31.67;26.67;15.67
59179;PMS7003;44956;52.422;20.818;2024-02-15T03:44:35;25.33;23.67;16.00
59179;PMS7003;44956;52.422;20.818;2024-02-15T03:47:38;29.67;26.00;16.00
59179;PMS7003;44956;52.422;20.818;2024-02-15T03:50:43;29.33;25.67;15.67
59179;PMS7003;44956;52.422;20.818;2024-02-15T03:53:46;30.00;24.33;15.00
59179;PMS7003;44956;52.422;20.818;2024-02-15T03:56:51;33.67;29.00;18.33
59179;PMS7003;44956;52.422;20.818;2024-02-15T03:59:55;34.00;28.67;16.00
59179;PMS7003;44956;52.422;20.818;2024-02-15T04:02:59;26.33;26.33;15.33
59179;PMS7003;44956;52.422;20.818;2024-02-15T04:06:03;30.00;25.33;15.00
59179;PMS7003;44956;52.422;20.818;2024-02-15T04:09:08;31.00;27.67;18.00
59179;PMS7003;44956;52.422;20.818;2024-02-15T04:12:13;35.33;31.00;18.33
59179;PMS7003;44956;52.422;20.818;2024-02-15T04:15:16;18.33;11.67;10.33
59179;PMS7003;44956;52.422;20.818;2024-02-15T04:18:20;36.33;30.67;17.00
59179;PMS7003;44956;52.422;20.818;2024-02-15T04:21:24;34.00;28.33;16.67
59179;PMS7003;44956;52.422;20.818;2024-02-15T04:24:29;29.67;29.00;17.33
59179;PMS7003;44956;52.422;20.818;2024-02-15T04:27:34;34.67;28.00;17.00
59179;PMS7003;44956;52.422;20.818;2024-02-15T04:30:37;35.67;31.00;16.33
59179;PMS7003;44956;52.422;20.818;2024-02-15T04:33:40;33.00;29.67;16.33
59179;PMS7003;44956;52.422;20.818;2024-02-15T04:36:46;30.33;27.00;18.00
59179;PMS7003;44956;52.422;20.818;2024-02-15T04:39:53;38.67;30.00;17.67
59179;PMS7003;44956;52.422;20.818;2024-02-15T04:42:55;33.67;27.33;16.67
59179;PMS7003;44956;52.422;20.818;2024-02-15T04:45:58;29.33;23.33;15.33
59179;PMS7003;44956;52.422;20.818;2024-02-15T04:49:07;28.33;27.67;17.33
59179;PMS7003;44956;52.422;20.818;2024-02-15T04:52:11;30.00;23.00;15.33
59179;PMS7003;44956;52.422;20.818;2024-02-15T04:55:14;39.00;29.67;16.00
59179;PMS7003;44956;52.422;20.818;2024-02-15T04:58:17;39.33;33.00;19.33
59179;PMS7003;44956;52.422;20.818;2024-02-15T05:01:21;34.67;27.33;15.67
59179;PMS7003;44956;52.422;20.818;2024-02-15T05:04:24;39.67;30.67;16.00
59179;PMS7003;44956;52.422;20.818;2024-02-15T05:07:27;37.33;31.00;17.67
59179;PMS7003;44956;52.422;20.818;2024-02-15T05:10:29;38.67;29.67;18.33
59179;PMS7003;44956;52.422;20.818;2024-02-15T05:13:32;32.67;28.00;18.33
59179;PMS7003;44956;52.422;20.818;2024-02-15T05:16:36;38.00;32.00;18.67
59179;PMS7003;44956;52.422;20.818;2024-02-15T05:19:45;37.33;32.33;19.33
59179;PMS7003;44956;52.422;20.818;2024-02-15T05:22:48;31.33;30.33;18.67
59179;PMS7003;44956;52.422;20.818;2024-02-15T05:25:52;42.33;30.33;17.33
59179;PMS7003;44956;52.422;20.818;2024-02-15T05:28:56;22.00;18.67;8.00
59179;PMS7003;44956;52.422;20.818;2024-02-15T05:31:59;28.00;28.00;17.67
59179;PMS7003;44956;52.422;20.818;2024-02-15T05:35:03;43.00;34.67;20.33
59179;PMS7003;44956;52.422;20.818;2024-02-15T05:38:06;39.67;30.00;19.00
59179;PMS7003;44956;52.422;20.818;2024-02-15T05:41:10;35.67;30.00;19.67
59179;PMS7003;44956;52.422;20.818;2024-02-15T05:44:13;37.00;31.67;18.33
59179;PMS7003;44956;52.422;20.818;2024-02-15T05:47:21;38.00;28.67;17.33
59179;PMS7003;44956;52.422;20.818;2024-02-15T05:50:23;31.00;30.67;19.00
59179;PMS7003;44956;52.422;20.818;2024-02-15T05:53:27;42.33;34.00;16.33
59179;PMS7003;44956;52.422;20.818;2024-02-15T05:56:30;34.00;27.33;16.67
59179;PMS7003;44956;52.422;20.818;2024-02-15T05:59:33;39.33;32.00;18.33
59179;PMS7003;44956;52.422;20.818;2024-02-15T06:02:39;40.00;29.33;16.00
59179;PMS7003;44956;52.422;20.818;2024-02-15T06:05:42;35.67;32.00;19.67
59179;PMS7003;44956;52.422;20.818;2024-02-15T06:08:46;31.00;28.00;17.33
59179;PMS7003;44956;52.422;20.818;2024-02-15T06:11:49;37.67;30.33;17.00
59179;PMS7003;44956;52.422;20.818;2024-02-15T06:14:53;42.00;32.33;21.33
59179;PMS7003;44956;52.422;20.818;2024-02-15T06:17:58;40.67;36.67;21.67
59179;PMS7003;44956;52.422;20.818;2024-02-15T06:21:01;44.00;36.67;19.00
59179;PMS7003;44956;52.422;20.818;2024-02-15T06:24:04;47.33;39.33;22.00
59179;PMS7003;44956;52.422;20.818;2024-02-15T06:27:07;38.33;33.67;17.33
59179;PMS7003;44956;52.422;20.818;2024-02-15T06:30:10;43.00;37.33;19.00
59179;PMS7003;44956;52.422;20.818;2024-02-15T06:33:32;46.33;38.67;19.67
59179;PMS7003;44956;52.422;20.818;2024-02-15T06:36:55;48.67;35.00;19.67
59179;PMS7003;44956;52.422;20.818;2024-02-15T06:40:16;49.00;40.00;23.00
59179;PMS7003;44956;52.422;20.818;2024-02-15T06:43:20;46.00;36.00;22.67
59179;PMS7003;44956;52.422;20.818;2024-02-15T06:46:24;42.67;34.33;19.00
59179;PMS7003;44956;52.422;20.818;2024-02-15T06:49:27;40.33;36.00;21.00
59179;PMS7003;44956;52.422;20.818;2024-02-15T06:52:29;47.00;42.33;22.00
59179;PMS7003;44956;52.422;20.818;2024-02-15T06:55:32;48.00;41.00;23.00
59179;PMS7003;44956;52.422;20.818;2024-02-15T06:58:37;45.33;40.67;24.33
59179;PMS7003;44956;52.422;20.818;2024-02-15T07:01:43;45.00;37.67;22.33
59179;PMS7003;44956;52.422;20.818;2024-02-15T07:04:47;51.00;40.67;22.33
59179;PMS7003;44956;52.422;20.818;2024-02-15T07:07:54;46.33;42.00;24.00
59179;PMS7003;44956;52.422;20.818;2024-02-15T07:10:58;54.67;44.00;23.00
59179;PMS7003;44956;52.422;20.818;2024-02-15T07:14:01;53.00;44.33;26.00
59179;PMS7003;44956;52.422;20.818;2024-02-15T07:17:06;45.33;41.00;26.00
59179;PMS7003;44956;52.422;20.818;2024-02-15T07:20:12;46.67;40.67;23.00
59179;PMS7003;44956;52.422;20.818;2024-02-15T07:23:19;47.00;38.33;22.33
59179;PMS7003;44956;52.422;20.818;2024-02-15T07:26:23;53.00;42.00;25.00
59179;PMS7003;44956;52.422;20.818;2024-02-15T07:29:30;52.67;41.33;26.00
59179;PMS7003;44956;52.422;20.818;2024-02-15T07:32:34;54.00;43.00;25.67
59179;PMS7003;44956;52.422;20.818;2024-02-15T07:35:37;51.00;43.67;27.00
59179;PMS7003;44956;52.422;20.818;2024-02-15T07:38:40;55.00;42.33;26.00
59179;PMS7003;44956;52.422;20.818;2024-02-15T07:41:42;61.67;48.33;28.67
59179;PMS7003;44956;52.422;20.818;2024-02-15T07:44:48;46.00;41.00;27.00
59179;PMS7003;44956;52.422;20.818;2024-02-15T07:47:50;60.67;46.33;29.67
59179;PMS7003;44956;52.422;20.818;2024-02-15T07:50:53;55.33;44.67;27.33
59179;PMS7003;44956;52.422;20.818;2024-02-15T07:53:57;61.67;49.67;27.67
59179;PMS7003;44956;52.422;20.818;2024-02-15T07:56:59;64.00;49.33;29.67
59179;PMS7003;44956;52.422;20.818;2024-02-15T08:00:03;53.00;44.33;27.33
59179;PMS7003;44956;52.422;20.818;2024-02-15T08:03:12;56.00;48.00;29.33
59179;PMS7003;44956;52.422;20.818;2024-02-15T08:06:19;66.00;52.67;31.00
59179;PMS7003;44956;52.422;20.818;2024-02-15T08:09:22;67.67;51.67;31.00
59179;PMS7003;44956;52.422;20.818;2024-02-15T08:12:27;62.67;52.00;31.00
59179;PMS7003;44956;52.422;20.818;2024-02-15T08:15:29;65.33;48.00;27.00
59179;PMS7003;44956;52.422;20.818;2024-02-15T08:18:32;66.33;53.33;30.00
59179;PMS7003;44956;52.422;20.818;2024-02-15T08:21:37;59.33;49.00;30.00
59179;PMS7003;44956;52.422;20.818;2024-02-15T08:24:43;65.33;52.33;30.00
59179;PMS7003;44956;52.422;20.818;2024-02-15T08:27:49;60.00;49.00;30.67
59179;PMS7003;44956;52.422;20.818;2024-02-15T08:30:53;65.00;53.00;30.00
59179;PMS7003;44956;52.422;20.818;2024-02-15T08:34:03;64.33;52.00;31.00
59179;PMS7003;44956;52.422;20.818;2024-02-15T08:37:29;66.33;51.33;30.00
59179;PMS7003;44956;52.422;20.818;2024-02-15T08:40:31;71.33;55.00;32.00
59179;PMS7003;44956;52.422;20.818;2024-02-15T08:43:34;65.00;52.00;31.33
59179;PMS7003;44956;52.422;20.818;2024-02-15T08:46:38;69.00;52.00;31.00
59179;PMS7003;44956;52.422;20.818;2024-02-15T08:49:41;67.00;50.00;30.00
59179;PMS7003;44956;52.422;20.818;2024-02-15T08:53:14;72.33;54.33;31.00
59179;PMS7003;44956;52.422;20.818;2024-02-15T08:56:17;66.33;49.00;30.00
59179;PMS7003;44956;52.422;20.818;2024-02-15T08:59:22;68.67;53.00;31.00
59179;PMS7003;44956;52.422;20.818;2024-02-15T09:02:26;72.00;53.00;31.33
59179;PMS7003;44956;52.422;20.818;2024-02-15T09:05:29;62.67;52.00;31.00
59179;PMS7003;44956;52.422;20.818;2024-02-15T09:08:33;66.00;51.33;30.00
59179;PMS7003;44956;52.422;20.818;2024-02-15T09:11:36;60.33;48.00;27.00
59179;PMS7003;44956;52.422;20.818;2024-02-15T09:14:38;68.33;55.67;32.00
59179;PMS7003;44956;52.422;20.818;2024-02-15T09:17:41;71.33;54.00;31.00
59179;PMS7003;44956;52.422;20.818;2024-02-15T09:20:46;66.67;51.33;29.67
59179;PMS7003;44956;52.422;20.818;2024-02-15T09:23:51;70.33;55.00;32.00
59179;PMS7003;44956;52.422;20.818;2024-02-15T09:26:53;66.00;54.33;31.00
59179;PMS7003;44956;52.422;20.818;2024-02-15T09:29:56;69.67;54.67;32.33
59179;PMS7003;44956;52.422;20.818;2024-02-15T09:33:02;71.00;55.00;33.33
59179;PMS7003;44956;52.422;20.818;2024-02-15T09:36:08;60.00;47.33;32.00
59179;PMS7003;44956;52.422;20.818;2024-02-15T09:39:11;62.67;51.33;31.00
59179;PMS7003;44956;52.422;20.818;2024-02-15T09:42:16;67.33;51.33;29.33
59179;PMS7003;44956;52.422;20.818;2024-02-15T09:45:19;72.33;54.00;32.00
59179;PMS7003;44956;52.422;20.818;2024-02-15T09:48:24;68.33;53.00;30.33
59179;PMS7003;44956;52.422;20.818;2024-02-15T09:51:27;71.00;53.00;31.33
59179;PMS7003;44956;52.422;20.818;2024-02-15T09:54:33;63.33;52.33;32.00
59179;PMS7003;44956;52.422;20.818;2024-02-15T09:57:36;60.67;47.33;30.33
59179;PMS7003;44956;52.422;20.818;2024-02-15T10:00:41;64.00;53.33;32.00
59179;PMS7003;44956;52.422;20.818;2024-02-15T10:03:46;71.67;56.00;33.67
59179;PMS7003;44956;52.422;20.818;2024-02-15T10:06:52;64.33;53.00;32.00
59179;PMS7003;44956;52.422;20.818;2024-02-15T10:09:56;67.00;54.00;33.00
59179;PMS7003;44956;52.422;20.818;2024-02-15T10:13:03;69.33;53.67;32.00
59179;PMS7003;44956;52.422;20.818;2024-02-15T10:16:15;64.67;53.33;33.00
59179;PMS7003;44956;52.422;20.818;2024-02-15T10:19:19;70.00;56.67;34.33
59179;PMS7003;44956;52.422;20.818;2024-02-15T10:22:26;66.67;52.00;33.00
59179;PMS7003;44956;52.422;20.818;2024-02-15T10:25:29;63.00;50.33;31.33
59179;PMS7003;44956;52.422;20.818;2024-02-15T10:28:32;67.00;50.33;30.67
59179;PMS7003;44956;52.422;20.818;2024-02-15T10:31:35;78.67;56.00;34.00
59179;PMS7003;44956;52.422;20.818;2024-02-15T10:34:44;68.67;53.00;33.67
59179;PMS7003;44956;52.422;20.818;2024-02-15T10:37:50;68.67;54.00;31.00
59179;PMS7003;44956;52.422;20.818;2024-02-15T10:40:53;68.33;54.00;30.33
59179;PMS7003;44956;52.422;20.818;2024-02-15T10:44:08;70.33;53.67;31.33
59179;PMS7003;44956;52.422;20.818;2024-02-15T10:47:11;68.00;52.00;31.67
59179;PMS7003;44956;52.422;20.818;2024-02-15T10:50:15;51.67;40.67;22.67
59179;PMS7003;44956;52.422;20.818;2024-02-15T10:56:27;61.00;51.00;31.00
59179;PMS7003;44956;52.422;20.818;2024-02-15T10:59:43;69.00;51.67;32.33
59179;PMS7003;44956;52.422;20.818;2024-02-15T11:03:16;72.33;56.00;32.00
59179;PMS7003;44956;52.422;20.818;2024-02-15T11:06:27;70.00;56.33;32.67
59179;PMS7003;44956;52.422;20.818;2024-02-15T11:09:32;62.67;52.00;32.33
59179;PMS7003;44956;52.422;20.818;2024-02-15T11:12:35;58.33;49.33;32.00
59179;PMS7003;44956;52.422;20.818;2024-02-15T11:15:39;69.00;56.00;32.00
59179;PMS7003;44956;52.422;20.818;2024-02-15T11:18:45;72.33;55.33;35.00
59179;PMS7003;44956;52.422;20.818;2024-02-15T11:21:58;74.00;55.33;33.33
59179;PMS7003;44956;52.422;20.818;2024-02-15T11:25:05;69.33;53.00;33.33
59179;PMS7003;44956;52.422;20.818;2024-02-15T11:35:22;71.33;55.00;34.33
59179;PMS7003;44956;52.422;20.818;2024-02-15T11:38:29;72.00;55.67;34.33
59179;PMS7003;44956;52.422;20.818;2024-02-15T11:41:32;68.00;54.33;33.00
59179;PMS7003;44956;52.422;20.818;2024-02-15T11:44:35;72.67;57.33;34.33
59179;PMS7003;44956;52.422;20.818;2024-02-15T11:47:39;63.00;49.67;33.33
59179;PMS7003;44956;52.422;20.818;2024-02-15T11:50:43;70.00;56.33;34.33
59179;PMS7003;44956;52.422;20.818;2024-02-15T11:53:57;76.00;58.33;34.33
59179;PMS7003;44956;52.422;20.818;2024-02-15T11:57:01;66.67;50.33;31.67
59179;PMS7003;44956;52.422;20.818;2024-02-15T12:00:18;71.00;52.67;30.67
59179;PMS7003;44956;52.422;20.818;2024-02-15T12:03:52;71.33;56.00;33.00
59179;PMS7003;44956;52.422;20.818;2024-02-15T12:07:15;70.00;53.00;33.67
59179;PMS7003;44956;52.422;20.818;2024-02-15T12:10:37;65.33;51.67;33.00
59179;PMS7003;44956;52.422;20.818;2024-02-15T12:13:58;68.00;54.33;33.33
59179;PMS7003;44956;52.422;20.818;2024-02-15T12:17:19;70.67;54.00;33.00
59179;PMS7003;44956;52.422;20.818;2024-02-15T12:20:41;69.00;53.67;33.67
59179;PMS7003;44956;52.422;20.818;2024-02-15T12:23:43;60.33;50.67;30.67
59179;PMS7003;44956;52.422;20.818;2024-02-15T12:26:50;69.67;54.33;31.33
59179;PMS7003;44956;52.422;20.818;2024-02-15T12:29:53;65.00;55.00;34.00
59179;PMS7003;44956;52.422;20.818;2024-02-15T12:33:10;67.67;51.00;32.67
59179;PMS7003;44956;52.422;20.818;2024-02-15T12:36:23;67.00;53.33;32.33
59179;PMS7003;44956;52.422;20.818;2024-02-15T12:39:26;70.00;52.33;33.33
59179;PMS7003;44956;52.422;20.818;2024-02-15T12:42:30;71.33;55.33;34.67
59179;PMS7003;44956;52.422;20.818;2024-02-15T12:45:35;69.33;51.00;32.33
59179;PMS7003;44956;52.422;20.818;2024-02-15T12:48:38;66.33;53.00;30.67
59179;PMS7003;44956;52.422;20.818;2024-02-15T12:51:49;65.67;52.33;32.33
59179;PMS7003;44956;52.422;20.818;2024-02-15T12:55:07;69.67;54.00;33.33
59179;PMS7003;44956;52.422;20.818;2024-02-15T12:58:14;66.00;52.33;32.33
59179;PMS7003;44956;52.422;20.818;2024-02-15T13:01:18;65.67;52.67;30.33
59179;PMS7003;44956;52.422;20.818;2024-02-15T13:04:25;65.67;51.33;30.33
59179;PMS7003;44956;52.422;20.818;2024-02-15T13:07:29;67.00;53.67;32.33
59179;PMS7003;44956;52.422;20.818;2024-02-15T13:10:31;61.00;49.00;30.00
59179;PMS7003;44956;52.422;20.818;2024-02-15T13:13:34;67.00;53.00;32.00
59179;PMS7003;44956;52.422;20.818;2024-02-15T13:16:37;56.67;43.00;20.00
59179;PMS7003;44956;52.422;20.818;2024-02-15T13:19:44;65.67;53.00;32.00
59179;PMS7003;44956;52.422;20.818;2024-02-15T13:22:47;64.67;52.67;32.00
59179;PMS7003;44956;52.422;20.818;2024-02-15T13:25:51;63.67;52.00;32.33
59179;PMS7003;44956;52.422;20.818;2024-02-15T13:28:54;66.00;54.00;34.00
59179;PMS7003;44956;52.422;20.818;2024-02-15T13:31:57;69.67;53.00;34.00
59179;PMS7003;44956;52.422;20.818;2024-02-15T13:35:00;66.33;51.67;32.33
59179;PMS7003;44956;52.422;20.818;2024-02-15T13:38:09;64.00;54.00;34.67
59179;PMS7003;44956;52.422;20.818;2024-02-15T13:41:17;63.33;50.67;32.33
59179;PMS7003;44956;52.422;20.818;2024-02-15T13:44:21;65.33;51.67;32.00
59179;PMS7003;44956;52.422;20.818;2024-02-15T13:47:25;69.33;53.00;32.33
59179;PMS7003;44956;52.422;20.818;2024-02-15T13:50:29;65.67;51.67;32.00
59179;PMS7003;44956;52.422;20.818;2024-02-15T13:53:34;70.00;57.33;35.00
59179;PMS7003;44956;52.422;20.818;2024-02-15T13:56:40;70.33;53.67;33.33
59179;PMS7003;44956;52.422;20.818;2024-02-15T13:59:43;67.00;55.00;34.33
59179;PMS7003;44956;52.422;20.818;2024-02-15T14:02:53;71.00;56.00;34.33
59179;PMS7003;44956;52.422;20.818;2024-02-15T14:05:57;71.33;57.33;34.67
59179;PMS7003;44956;52.422;20.818;2024-02-15T14:09:01;67.67;54.67;33.33
59179;PMS7003;44956;52.422;20.818;2024-02-15T14:12:04;64.67;52.33;33.33
59179;PMS7003;44956;52.422;20.818;2024-02-15T14:15:08;70.67;55.33;34.67
59179;PMS7003;44956;52.422;20.818;2024-02-15T14:18:12;65.33;53.33;33.00
59179;PMS7003;44956;52.422;20.818;2024-02-15T14:21:22;75.00;57.33;35.00
59179;PMS7003;44956;52.422;20.818;2024-02-15T14:24:25;77.00;59.00;35.00
59179;PMS7003;44956;52.422;20.818;2024-02-15T14:27:28;65.67;53.33;32.33
59179;PMS7003;44956;52.422;20.818;2024-02-15T14:30:30;70.00;54.33;33.33
59179;PMS7003;44956;52.422;20.818;2024-02-15T14:33:52;67.00;52.67;32.33
59179;PMS7003;44956;52.422;20.818;2024-02-15T14:36:54;72.33;55.00;34.00
59179;PMS7003;44956;52.422;20.818;2024-02-15T14:39:57;66.00;52.67;35.00
59179;PMS7003;44956;52.422;20.818;2024-02-15T14:43:07;62.67;51.33;30.00
59179;PMS7003;44956;52.422;20.818;2024-02-15T14:46:10;66.67;54.00;35.00
59179;PMS7003;44956;52.422;20.818;2024-02-15T14:49:13;71.33;55.00;33.33
59179;PMS7003;44956;52.422;20.818;2024-02-15T14:52:16;69.00;55.00;34.33
59179;PMS7003;44956;52.422;20.818;2024-02-15T14:55:20;71.67;55.00;35.00
59179;PMS7003;44956;52.422;20.818;2024-02-15T14:58:23;70.67;56.67;35.33
59179;PMS7003;44956;52.422;20.818;2024-02-15T15:01:26;66.33;52.33;35.00
59179;PMS7003;44956;52.422;20.818;2024-02-15T15:04:32;69.00;55.00;33.33
59179;PMS7003;44956;52.422;20.818;2024-02-15T15:07:49;67.00;52.33;33.33
59179;PMS7003;44956;52.422;20.818;2024-02-15T15:11:10;63.50;50.25;33.50
59179;PMS7003;44956;52.422;20.818;2024-02-15T15:14:32;65.00;52.75;34.00
59179;PMS7003;44956;52.422;20.818;2024-02-15T15:17:35;65.50;52.00;32.00
59179;PMS7003;44956;52.422;20.818;2024-02-15T15:20:38;65.00;52.33;33.33
59179;PMS7003;44956;52.422;20.818;2024-02-15T15:23:44;64.67;52.00;32.67
59179;PMS7003;44956;52.422;20.818;2024-02-15T15:26:47;67.00;55.00;35.00
59179;PMS7003;44956;52.422;20.818;2024-02-15T15:29:50;62.67;51.00;32.00
59179;PMS7003;44956;52.422;20.818;2024-02-15T15:32:54;68.00;55.00;32.33
59179;PMS7003;44956;52.422;20.818;2024-02-15T15:35:57;62.50;49.00;28.25
59179;PMS7003;44956;52.422;20.818;2024-02-15T15:39:00;61.00;50.00;32.00
59179;PMS7003;44956;52.422;20.818;2024-02-15T15:42:08;63.00;50.75;31.00
59179;PMS7003;44956;52.422;20.818;2024-02-15T15:45:10;68.00;51.50;32.00
59179;PMS7003;44956;52.422;20.818;2024-02-15T15:48:14;70.50;52.50;32.50
59179;PMS7003;44956;52.422;20.818;2024-02-15T15:51:18;64.25;48.25;30.75
59179;PMS7003;44956;52.422;20.818;2024-02-15T15:54:21;65.25;51.50;30.25
59179;PMS7003;44956;52.422;20.818;2024-02-15T15:57:24;59.00;49.67;32.33
59179;PMS7003;44956;52.422;20.818;2024-02-15T16:00:27;56.75;47.50;31.25
59179;PMS7003;44956;52.422;20.818;2024-02-15T16:03:30;64.25;51.75;30.00
59179;PMS7003;44956;52.422;20.818;2024-02-15T16:06:34;61.50;49.25;30.00
59179;PMS7003;44956;52.422;20.818;2024-02-15T16:09:37;61.75;46.50;29.25
59179;PMS7003;44956;52.422;20.818;2024-02-15T16:12:43;61.00;48.00;30.00
59179;PMS7003;44956;52.422;20.818;2024-02-15T16:15:46;58.25;47.50;29.00
59179;PMS7003;44956;52.422;20.818;2024-02-15T16:18:50;59.67;48.67;29.33
59179;PMS7003;44956;52.422;20.818;2024-02-15T16:21:53;62.00;49.33;29.67
59179;PMS7003;44956;52.422;20.818;2024-02-15T16:24:56;58.33;48.00;29.00
59179;PMS7003;44956;52.422;20.818;2024-02-15T16:27:59;58.67;45.33;28.67
59179;PMS7003;44956;52.422;20.818;2024-02-15T16:31:03;69.67;50.33;32.33
59179;PMS7003;44956;52.422;20.818;2024-02-15T16:34:08;65.50;50.75;29.00
59179;PMS7003;44956;52.422;20.818;2024-02-15T16:37:12;60.00;48.00;29.00
59179;PMS7003;44956;52.422;20.818;2024-02-15T16:40:16;58.67;48.33;29.00
59179;PMS7003;44956;52.422;20.818;2024-02-15T16:43:19;65.33;49.33;30.33
59179;PMS7003;44956;52.422;20.818;2024-02-15T16:46:23;65.33;51.00;30.67
59179;PMS7003;44956;52.422;20.818;2024-02-15T16:49:26;60.67;48.33;30.33
59179;PMS7003;44956;52.422;20.818;2024-02-15T16:52:30;70.33;50.33;30.00
59179;PMS7003;44956;52.422;20.818;2024-02-15T16:55:34;61.00;48.67;29.67
59179;PMS7003;44956;52.422;20.818;2024-02-15T16:58:37;65.67;51.00;29.00
59179;PMS7003;44956;52.422;20.818;2024-02-15T17:01:40;63.00;52.00;30.33
59179;PMS7003;44956;52.422;20.818;2024-02-15T17:04:44;70.00;50.67;32.00
59179;PMS7003;44956;52.422;20.818;2024-02-15T17:07:48;68.00;52.67;31.00
59179;PMS7003;44956;52.422;20.818;2024-02-15T17:10:52;64.67;51.00;30.33
59179;PMS7003;44956;52.422;20.818;2024-02-15T17:13:56;64.00;51.00;30.33
59179;PMS7003;44956;52.422;20.818;2024-02-15T17:17:03;62.67;51.67;30.33